Time;durP1;ratioP1;P1;durP2;ratioP2;P2;SDS_P1;SDS_P2;PMS_P1;PMS_P2;Temp;Humidity;BMP_temperature;BMP_pressure;BME280_temperature;BME280_humidity;BME280_pressure;Samples;Min_cycle;Max_cycle;Signal;HPM_P1;HPM_P2
2022/07/14 00:00:16;;;;;;;13.27;4.20;;;;;;;;;;5097552;28;20572;-66
2022/07/14 00:02:43;;;;;;;15.03;4.70;;;;;;;;;;5098045;28;20582;-66
2022/07/14 00:05:11;;;;;;;9.87;3.50;;;;;;;;;;5097584;28;20495;-66
2022/07/14 00:07:39;;;;;;;13.70;4.20;;;;;;;;;;5098222;28;20442;-66
2022/07/14 00:10:06;;;;;;;15.83;4.60;;;;;;;;;;5097243;28;20471;-66
2022/07/14 00:12:34;;;;;;;18.97;4.40;;;;;;;;;;5097381;28;20527;-66
2022/07/14 00:15:01;;;;;;;18.10;4.90;;;;;;;;;;5097128;28;20463;-66
2022/07/14 00:17:28;;;;;;;16.80;3.83;;;;;;;;;;5097228;28;20527;-66
2022/07/14 00:19:55;;;;;;;9.43;4.03;;;;;;;;;;5097626;28;20531;-66
2022/07/14 00:22:24;;;;;;;16.80;3.80;;;;;;;;;;5096905;28;20481;-66
2022/07/14 00:24:51;;;;;;;13.07;4.27;;;;;;;;;;5096931;28;20480;-66
2022/07/14 00:27:18;;;;;;;15.87;4.87;;;;;;;;;;5097214;28;20525;-66
2022/07/14 00:29:46;;;;;;;12.87;4.93;;;;;;;;;;5096924;28;20438;-66
2022/07/14 00:32:13;;;;;;;18.10;4.33;;;;;;;;;;5096819;28;20530;-66
2022/07/14 00:34:40;;;;;;;14.53;4.10;;;;;;;;;;5097184;28;20537;-66
2022/07/14 00:37:07;;;;;;;14.97;3.63;;;;;;;;;;5096754;28;20484;-66
2022/07/14 00:42:27;;;;;;;9.73;4.10;;;;;;;;;;5096357;28;20492;-66
2022/07/14 00:44:54;;;;;;;9.97;4.20;;;;;;;;;;5097152;28;20424;-66
2022/07/14 00:47:21;;;;;;;10.63;4.37;;;;;;;;;;5096457;28;20441;-66
2022/07/14 00:49:49;;;;;;;13.63;4.30;;;;;;;;;;5096553;28;20442;-66
2022/07/14 00:52:16;;;;;;;16.50;5.63;;;;;;;;;;5096763;28;20449;-66
2022/07/14 00:54:44;;;;;;;12.97;4.10;;;;;;;;;;5096956;28;20441;-66
2022/07/14 00:57:12;;;;;;;13.73;4.37;;;;;;;;;;5096629;28;20439;-66
2022/07/14 00:59:39;;;;;;;9.63;4.40;;;;;;;;;;5097123;28;20498;-66
2022/07/14 01:02:06;;;;;;;27.93;6.13;;;;;;;;;;5096534;28;20879;-66
2022/07/14 01:04:33;;;;;;;18.03;4.37;;;;;;;;;;5096568;28;20458;-66
2022/07/14 01:07:01;;;;;;;18.53;5.70;;;;;;;;;;5096400;28;20446;-66
2022/07/14 01:09:28;;;;;;;11.97;4.00;;;;;;;;;;5096242;28;21003;-65
2022/07/14 01:11:56;;;;;;;19.30;4.70;;;;;;;;;;5096399;28;20525;-66
2022/07/14 01:14:24;;;;;;;12.83;4.67;;;;;;;;;;5096145;28;20473;-66
2022/07/14 01:16:55;;;;;;;10.93;4.43;;;;;;;;;;5096865;28;20439;-66
2022/07/14 01:19:22;;;;;;;16.23;4.90;;;;;;;;;;5096092;28;20426;-66
2022/07/14 01:21:52;;;;;;;12.93;3.83;;;;;;;;;;5096935;28;20495;-66
2022/07/14 01:24:19;;;;;;;13.33;4.37;;;;;;;;;;5096202;28;20455;-66
2022/07/14 01:26:46;;;;;;;20.13;5.30;;;;;;;;;;5096130;28;20445;-66
2022/07/14 01:29:13;;;;;;;25.30;6.73;;;;;;;;;;5096110;28;20956;-66
2022/07/14 01:31:40;;;;;;;15.43;4.03;;;;;;;;;;5096370;28;20435;-66
2022/07/14 01:34:08;;;;;;;14.87;5.07;;;;;;;;;;5095724;28;20448;-66
2022/07/14 01:36:35;;;;;;;17.50;5.23;;;;;;;;;;5096337;28;20860;-66
2022/07/14 01:39:04;;;;;;;10.93;4.10;;;;;;;;;;5096512;28;20431;-66
2022/07/14 01:41:32;;;;;;;12.40;4.33;;;;;;;;;;5095385;28;20980;-66
2022/07/14 01:43:59;;;;;;;15.70;5.63;;;;;;;;;;5095886;28;20463;-66
2022/07/14 01:46:26;;;;;;;18.03;5.07;;;;;;;;;;5095739;28;20922;-66
2022/07/14 01:48:53;;;;;;;18.40;4.27;;;;;;;;;;5095424;28;20530;-66
2022/07/14 01:51:21;;;;;;;17.17;4.53;;;;;;;;;;5096017;28;20534;-66
2022/07/14 01:53:49;;;;;;;18.50;5.03;;;;;;;;;;5095278;28;20521;-66
2022/07/14 01:56:17;;;;;;;16.43;4.87;;;;;;;;;;5095823;28;20453;-66
2022/07/14 01:58:44;;;;;;;12.43;4.20;;;;;;;;;;5095529;28;20461;-66
2022/07/14 02:03:59;;;;;;;22.77;5.17;;;;;;;;;;5095225;28;20397;-66
2022/07/14 02:06:26;;;;;;;15.23;4.70;;;;;;;;;;5095399;28;20439;-66
2022/07/14 02:08:53;;;;;;;11.20;3.83;;;;;;;;;;5095333;28;20872;-66
2022/07/14 02:14:07;;;;;;;15.93;4.67;;;;;;;;;;5095014;28;20558;-66
2022/07/14 02:16:34;;;;;;;25.03;5.10;;;;;;;;;;5094946;28;20440;-66
2022/07/14 02:19:01;;;;;;;16.33;4.40;;;;;;;;;;5094479;28;20436;-66
2022/07/14 02:21:28;;;;;;;13.43;4.40;;;;;;;;;;5094760;28;20471;-65
2022/07/14 02:23:56;;;;;;;18.70;5.60;;;;;;;;;;5094574;28;20960;-66
2022/07/14 02:26:25;;;;;;;17.13;5.00;;;;;;;;;;5095650;28;20467;-66
2022/07/14 02:28:52;;;;;;;17.03;5.80;;;;;;;;;;5094859;28;20443;-66
2022/07/14 02:31:19;;;;;;;12.43;4.00;;;;;;;;;;5094627;28;21001;-66
2022/07/14 02:33:46;;;;;;;9.97;4.17;;;;;;;;;;5094848;28;20527;-66
2022/07/14 02:36:14;;;;;;;15.83;3.80;;;;;;;;;;5094823;28;20531;-67
2022/07/14 02:38:41;;;;;;;16.87;4.87;;;;;;;;;;5094411;28;20529;-66
2022/07/14 02:41:09;;;;;;;19.73;4.77;;;;;;;;;;5094924;28;20483;-66
2022/07/14 02:43:37;;;;;;;14.40;3.90;;;;;;;;;;5094332;28;20446;-66
2022/07/14 02:46:05;;;;;;;16.73;5.20;;;;;;;;;;5094672;28;20528;-66
2022/07/14 02:48:32;;;;;;;18.20;4.00;;;;;;;;;;5094194;28;20472;-66
2022/07/14 02:51:00;;;;;;;16.37;4.03;;;;;;;;;;5094487;28;20928;-66
2022/07/14 02:53:27;;;;;;;12.73;4.83;;;;;;;;;;5094139;28;20444;-66
2022/07/14 02:55:55;;;;;;;55.30;31.17;;;;;;;;;;5094499;28;20538;-66
2022/07/14 02:58:23;;;;;;;9.40;4.43;;;;;;;;;;5094147;28;20523;-66
2022/07/14 03:00:52;;;;;;;15.97;4.27;;;;;;;;;;5094537;28;20448;-66
2022/07/14 03:03:19;;;;;;;12.30;3.80;;;;;;;;;;5094552;28;20446;-66
2022/07/14 03:05:47;;;;;;;24.47;5.13;;;;;;;;;;5093966;28;20438;-66
2022/07/14 03:08:14;;;;;;;15.00;4.40;;;;;;;;;;5094344;28;20443;-67
2022/07/14 03:10:42;;;;;;;13.53;4.60;;;;;;;;;;5094175;28;20441;-66
2022/07/14 03:13:09;;;;;;;19.23;6.60;;;;;;;;;;5093881;28;20450;-66
2022/07/14 03:15:36;;;;;;;21.23;5.07;;;;;;;;;;5093872;28;20429;-66
2022/07/14 03:18:05;;;;;;;12.47;3.60;;;;;;;;;;5093713;28;20447;-66
2022/07/14 03:20:33;;;;;;;14.60;4.60;;;;;;;;;;5093726;28;20445;-66
2022/07/14 03:23:00;;;;;;;22.10;5.17;;;;;;;;;;5093853;28;20476;-66
2022/07/14 03:25:27;;;;;;;13.40;3.90;;;;;;;;;;5094075;28;20459;-66
2022/07/14 03:27:55;;;;;;;13.00;4.50;;;;;;;;;;5093562;28;20452;-66
2022/07/14 03:30:22;;;;;;;11.93;4.37;;;;;;;;;;5093558;28;20437;-66
2022/07/14 03:32:49;;;;;;;13.80;4.03;;;;;;;;;;5093135;28;20451;-66
2022/07/14 03:35:18;;;;;;;18.87;5.07;;;;;;;;;;5093423;28;20455;-66
2022/07/14 03:37:45;;;;;;;17.27;4.53;;;;;;;;;;5093768;28;20521;-65
2022/07/14 03:40:13;;;;;;;13.63;3.90;;;;;;;;;;5093635;28;20440;-67
2022/07/14 03:42:40;;;;;;;19.97;6.00;;;;;;;;;;5093286;28;20476;-66
2022/07/14 03:45:08;;;;;;;13.53;4.80;;;;;;;;;;5093327;28;20444;-67
2022/07/14 03:47:35;;;;;;;19.67;5.83;;;;;;;;;;5093618;28;20475;-67
2022/07/14 03:50:02;;;;;;;18.57;4.63;;;;;;;;;;5093318;28;20442;-67
2022/07/14 03:52:31;;;;;;;27.23;5.33;;;;;;;;;;5093702;28;20523;-66
2022/07/14 03:54:58;;;;;;;9.53;4.53;;;;;;;;;;5093612;28;20548;-66
2022/07/14 03:57:25;;;;;;;12.40;3.83;;;;;;;;;;5093743;28;20968;-66
2022/07/14 03:59:52;;;;;;;16.07;4.87;;;;;;;;;;5093408;28;20446;-66
2022/07/14 04:02:20;;;;;;;22.90;5.10;;;;;;;;;;5093508;28;20828;-66
2022/07/14 04:04:47;;;;;;;9.77;4.37;;;;;;;;;;5093256;28;20443;-67
2022/07/14 04:07:14;;;;;;;14.47;5.27;;;;;;;;;;5072606;28;20473;-66
2022/07/14 04:09:43;;;;;;;8.97;4.67;;;;;;;;;;5072393;28;20815;-66
2022/07/14 04:12:10;;;;;;;10.80;4.10;;;;;;;;;;5072509;28;20965;-66
2022/07/14 04:14:37;;;;;;;18.07;4.10;;;;;;;;;;5072772;28;20563;-66
2022/07/14 04:17:04;;;;;;;13.00;4.23;;;;;;;;;;5072801;28;20475;-67
2022/07/14 04:19:32;;;;;;;16.23;4.67;;;;;;;;;;5072418;28;20459;-67
2022/07/14 04:21:59;;;;;;;11.30;4.03;;;;;;;;;;5072953;28;20848;-66
2022/07/14 04:24:27;;;;;;;16.40;5.10;;;;;;;;;;5072658;28;20460;-66
2022/07/14 04:26:56;;;;;;;21.70;4.83;;;;;;;;;;5072627;28;20449;-66
2022/07/14 04:29:23;;;;;;;17.27;4.70;;;;;;;;;;5072504;28;20532;-66
2022/07/14 04:31:51;;;;;;;8.43;4.80;;;;;;;;;;5072507;28;20450;-66
2022/07/14 04:34:18;;;;;;;8.80;4.03;;;;;;;;;;5072743;28;20447;-67
2022/07/14 04:36:46;;;;;;;12.90;4.40;;;;;;;;;;5089554;28;20807;-66
2022/07/14 04:39:13;;;;;;;12.33;3.97;;;;;;;;;;5092614;28;20435;-67
2022/07/14 04:41:40;;;;;;;10.40;3.97;;;;;;;;;;5093123;28;20846;-66
2022/07/14 04:44:09;;;;;;;11.93;4.40;;;;;;;;;;5096464;28;20527;-67
2022/07/14 04:46:36;;;;;;;12.93;4.43;;;;;;;;;;5096407;28;20531;-67
2022/07/14 04:52:03;;;;;;;17.90;5.23;;;;;;;;;;5096786;28;20403;-67
2022/07/14 04:54:30;;;;;;;20.27;4.90;;;;;;;;;;5096203;28;21015;-67
2022/07/14 04:56:57;;;;;;;12.33;4.73;;;;;;;;;;5096255;28;20488;-67
2022/07/14 04:59:26;;;;;;;8.07;4.03;;;;;;;;;;5096289;28;20519;-67
2022/07/14 05:01:53;;;;;;;11.70;4.23;;;;;;;;;;5096324;28;20475;-67
2022/07/14 05:04:20;;;;;;;14.20;3.70;;;;;;;;;;5096748;28;20497;-67
2022/07/14 05:06:49;;;;;;;8.97;3.67;;;;;;;;;;5096412;28;20446;-66
2022/07/14 05:09:18;;;;;;;12.63;4.80;;;;;;;;;;5095467;28;20451;-66
2022/07/14 05:11:45;;;;;;;21.23;4.90;;;;;;;;;;5094694;28;20441;-67
2022/07/14 05:14:12;;;;;;;17.67;4.30;;;;;;;;;;5094813;28;20557;-67
2022/07/14 05:16:41;;;;;;;13.47;4.77;;;;;;;;;;5096148;28;20448;-67
2022/07/14 05:19:08;;;;;;;12.50;4.70;;;;;;;;;;5096262;28;20532;-65
2022/07/14 05:21:36;;;;;;;11.53;4.20;;;;;;;;;;5096137;28;20835;-65
2022/07/14 05:24:03;;;;;;;17.23;5.10;;;;;;;;;;5096080;28;20939;-65
2022/07/14 05:26:30;;;;;;;14.53;4.40;;;;;;;;;;5096146;28;20523;-65
2022/07/14 05:28:58;;;;;;;12.57;4.80;;;;;;;;;;5096144;28;20528;-65
2022/07/14 05:31:25;;;;;;;13.60;3.83;;;;;;;;;;5095949;28;20531;-65
2022/07/14 05:33:55;;;;;;;13.10;4.43;;;;;;;;;;5096156;28;20450;-65
2022/07/14 05:36:22;;;;;;;14.13;4.40;;;;;;;;;;5095679;28;20464;-65
2022/07/14 05:38:50;;;;;;;13.40;3.63;;;;;;;;;;5095885;28;20444;-66
2022/07/14 05:41:19;;;;;;;18.10;4.30;;;;;;;;;;5095991;28;20531;-66
2022/07/14 05:43:46;;;;;;;14.03;4.27;;;;;;;;;;5095769;28;20477;-66
2022/07/14 05:46:13;;;;;;;8.30;4.40;;;;;;;;;;5095534;28;20916;-65
2022/07/14 05:48:41;;;;;;;24.43;4.73;;;;;;;;;;5095810;28;20539;-65
2022/07/14 05:51:11;;;;;;;11.40;3.60;;;;;;;;;;5095808;28;20523;-65
2022/07/14 05:53:39;;;;;;;13.87;4.23;;;;;;;;;;5094751;28;21011;-66
2022/07/14 05:56:07;;;;;;;16.67;4.37;;;;;;;;;;5095482;28;20548;-66
2022/07/14 05:58:35;;;;;;;8.47;4.10;;;;;;;;;;5095996;28;20497;-65
2022/07/14 06:01:02;;;;;;;16.90;4.30;;;;;;;;;;5095662;28;20440;-66
2022/07/14 06:03:30;;;;;;;9.60;3.97;;;;;;;;;;5095392;28;20513;-65
2022/07/14 06:06:00;;;;;;;17.97;4.30;;;;;;;;;;5095070;28;20446;-65
2022/07/14 06:08:29;;;;;;;12.50;4.00;;;;;;;;;;5095115;28;20484;-65
2022/07/14 06:10:56;;;;;;;10.83;4.00;;;;;;;;;;5095355;28;20439;-65
2022/07/14 06:13:24;;;;;;;13.00;4.37;;;;;;;;;;5095434;28;20476;-65
2022/07/14 06:15:51;;;;;;;9.50;3.87;;;;;;;;;;5095509;28;20415;-65
2022/07/14 06:18:18;;;;;;;16.60;5.07;;;;;;;;;;5094930;28;21016;-65
2022/07/14 06:20:47;;;;;;;19.13;4.53;;;;;;;;;;5095051;28;20438;-66
2022/07/14 06:23:14;;;;;;;9.27;3.70;;;;;;;;;;5095450;28;20497;-65
2022/07/14 06:25:43;;;;;;;11.30;4.23;;;;;;;;;;5094602;28;20485;-65
2022/07/14 06:28:11;;;;;;;11.43;4.13;;;;;;;;;;5094745;28;20475;-66
2022/07/14 06:30:38;;;;;;;8.93;4.07;;;;;;;;;;5094903;28;20440;-66
2022/07/14 06:33:05;;;;;;;13.20;4.07;;;;;;;;;;5094951;28;20862;-65
2022/07/14 06:35:33;;;;;;;9.57;3.87;;;;;;;;;;5094805;28;20452;-66
2022/07/14 06:38:00;;;;;;;13.90;2.93;;;;;;;;;;5094834;28;20510;-65
2022/07/14 06:40:27;;;;;;;12.87;3.00;;;;;;;;;;5094713;28;20566;-66
2022/07/14 06:42:56;;;;;;;10.57;3.70;;;;;;;;;;5094805;28;20474;-66
2022/07/14 06:45:23;;;;;;;8.87;3.70;;;;;;;;;;5094357;28;20932;-65
2022/07/14 06:47:50;;;;;;;11.40;3.70;;;;;;;;;;5094640;28;20798;-65
2022/07/14 06:50:17;;;;;;;20.10;4.50;;;;;;;;;;5094428;28;20948;-65
2022/07/14 06:52:45;;;;;;;14.57;3.90;;;;;;;;;;5094442;28;20450;-65
2022/07/14 06:55:12;;;;;;;10.30;3.80;;;;;;;;;;5094973;28;20452;-66
2022/07/14 06:57:39;;;;;;;8.73;3.00;;;;;;;;;;5094069;28;20446;-65
2022/07/14 07:00:08;;;;;;;6.90;2.70;;;;;;;;;;5094467;28;20468;-65
2022/07/14 07:02:36;;;;;;;9.87;3.30;;;;;;;;;;5094201;28;20814;-65
2022/07/14 07:07:49;;;;;;;12.17;2.80;;;;;;;;;;5094084;28;20544;-66
2022/07/14 07:10:17;;;;;;;5.97;2.70;;;;;;;;;;5093991;28;20469;-65
2022/07/14 07:12:44;;;;;;;10.63;3.97;;;;;;;;;;5094122;28;20450;-66
2022/07/14 07:15:13;;;;;;;7.60;2.73;;;;;;;;;;5094175;28;21170;-65
2022/07/14 07:17:40;;;;;;;11.87;3.03;;;;;;;;;;5093943;28;20527;-65
2022/07/14 07:20:09;;;;;;;11.73;2.60;;;;;;;;;;5094164;28;20483;-65
2022/07/14 07:22:36;;;;;;;14.00;2.83;;;;;;;;;;5094060;28;20480;-65
2022/07/14 07:25:04;;;;;;;9.43;2.67;;;;;;;;;;5094289;28;20547;-66
2022/07/14 07:27:32;;;;;;;8.07;3.00;;;;;;;;;;5094085;28;20552;-66
2022/07/14 07:30:00;;;;;;;19.03;3.93;;;;;;;;;;5094413;28;20441;-65
2022/07/14 07:32:28;;;;;;;4.53;2.13;;;;;;;;;;5093727;28;20506;-66
2022/07/14 07:34:56;;;;;;;11.53;3.40;;;;;;;;;;5093832;28;20539;-65
2022/07/14 07:37:23;;;;;;;6.13;2.33;;;;;;;;;;5094210;28;20439;-65
2022/07/14 07:39:50;;;;;;;4.13;2.30;;;;;;;;;;5094285;28;20532;-65
2022/07/14 07:42:18;;;;;;;9.00;3.27;;;;;;;;;;5093661;28;20444;-65
2022/07/14 07:44:45;;;;;;;11.50;3.17;;;;;;;;;;5093375;28;20476;-65
2022/07/14 07:47:12;;;;;;;6.20;3.00;;;;;;;;;;5093615;28;20442;-66
2022/07/14 07:49:41;;;;;;;9.53;2.30;;;;;;;;;;5093377;28;20450;-65
2022/07/14 07:52:08;;;;;;;8.43;2.80;;;;;;;;;;5093204;28;20432;-66
2022/07/14 07:54:36;;;;;;;5.80;2.23;;;;;;;;;;5093948;28;20443;-65
2022/07/14 07:57:03;;;;;;;6.37;1.80;;;;;;;;;;5093452;28;20478;-65
2022/07/14 07:59:30;;;;;;;14.67;2.63;;;;;;;;;;5093616;28;20875;-65
2022/07/14 08:01:58;;;;;;;6.80;2.37;;;;;;;;;;5093170;28;20952;-65
2022/07/14 08:04:25;;;;;;;7.37;2.23;;;;;;;;;;5093482;28;20560;-65
2022/07/14 08:06:53;;;;;;;11.60;3.10;;;;;;;;;;5093961;28;20845;-65
2022/07/14 08:09:21;;;;;;;14.50;3.53;;;;;;;;;;5092980;28;20520;-65
2022/07/14 08:11:49;;;;;;;7.20;2.20;;;;;;;;;;5093412;28;20873;-65
2022/07/14 08:17:03;;;;;;;7.30;2.50;;;;;;;;;;5088203;28;20924;-65
2022/07/14 08:19:32;;;;;;;10.03;2.90;;;;;;;;;;5097718;28;20532;-65
2022/07/14 08:22:01;;;;;;;7.50;2.23;;;;;;;;;;5097276;28;20454;-65
2022/07/14 08:24:29;;;;;;;6.43;3.00;;;;;;;;;;5097195;28;20487;-65
2022/07/14 08:26:56;;;;;;;7.27;2.57;;;;;;;;;;5097287;28;20440;-65
2022/07/14 08:29:24;;;;;;;13.97;3.70;;;;;;;;;;5097402;28;20876;-65
2022/07/14 08:31:51;;;;;;;4.37;2.23;;;;;;;;;;5097213;28;20456;-65
2022/07/14 08:34:18;;;;;;;4.63;2.07;;;;;;;;;;5097217;28;20443;-65
2022/07/14 08:36:45;;;;;;;5.80;2.57;;;;;;;;;;5096920;28;20435;-65
2022/07/14 08:39:14;;;;;;;9.10;2.90;;;;;;;;;;5097082;28;20527;-65
2022/07/14 08:41:41;;;;;;;7.90;3.00;;;;;;;;;;5096783;28;20444;-65
2022/07/14 08:44:10;;;;;;;8.77;2.33;;;;;;;;;;5096902;28;20468;-65
2022/07/14 08:46:38;;;;;;;5.33;2.03;;;;;;;;;;5096998;28;20475;-66
2022/07/14 08:49:07;;;;;;;6.70;2.43;;;;;;;;;;5096941;28;20443;-65
2022/07/14 08:51:34;;;;;;;9.50;2.33;;;;;;;;;;5096844;28;20439;-65
2022/07/14 08:54:02;;;;;;;11.80;2.40;;;;;;;;;;5096953;28;20484;-65
2022/07/14 08:56:30;;;;;;;10.80;2.53;;;;;;;;;;5096821;28;20450;-66
2022/07/14 08:58:58;;;;;;;10.80;2.73;;;;;;;;;;5096560;28;20926;-66
2022/07/14 09:01:26;;;;;;;7.77;2.63;;;;;;;;;;5096779;28;20473;-65
2022/07/14 09:03:53;;;;;;;5.83;2.77;;;;;;;;;;5096516;28;20480;-65
2022/07/14 09:06:39;;;;;;;7.17;2.33;;;;;;;;;;5096354;28;20435;-65
2022/07/14 09:09:06;;;;;;;9.60;2.40;;;;;;;;;;5096162;28;20475;-65
2022/07/14 09:11:35;;;;;;;7.50;2.80;;;;;;;;;;5096221;28;20472;-65
2022/07/14 09:14:09;;;;;;;4.40;2.87;;;;;;;;;;5096044;28;20472;-66
2022/07/14 09:16:37;;;;;;;6.30;2.70;;;;;;;;;;5096216;28;20435;-65
2022/07/14 09:19:07;;;;;;;6.70;2.27;;;;;;;;;;5096318;28;20479;-65
2022/07/14 09:21:35;;;;;;;9.17;2.40;;;;;;;;;;5096034;28;20512;-65
2022/07/14 09:24:02;;;;;;;8.20;2.90;;;;;;;;;;5096211;28;20573;-66
2022/07/14 09:26:30;;;;;;;11.30;3.33;;;;;;;;;;5096294;28;20866;-66
2022/07/14 09:28:59;;;;;;;10.30;2.40;;;;;;;;;;5094670;28;20452;-66
2022/07/14 09:31:28;;;;;;;8.80;2.70;;;;;;;;;;5095743;28;20448;-66
2022/07/14 09:33:56;;;;;;;4.40;2.10;;;;;;;;;;5096240;28;20448;-66
2022/07/14 09:36:26;;;;;;;10.30;2.40;;;;;;;;;;5095706;28;20436;-66
2022/07/14 09:38:54;;;;;;;6.10;2.00;;;;;;;;;;5095601;28;20440;-66
2022/07/14 09:41:21;;;;;;;4.90;2.33;;;;;;;;;;5095976;28;20440;-66
2022/07/14 09:44:09;;;;;;;9.23;2.37;;;;;;;;;;5096052;28;20485;-65
2022/07/14 09:47:00;;;;;;;7.83;2.37;;;;;;;;;;5095925;28;20475;-65
2022/07/14 09:49:30;;;;;;;4.60;2.27;;;;;;;;;;5080243;28;20501;-66
2022/07/14 09:52:00;;;;;;;7.40;2.50;;;;;;;;;;5095907;28;20447;-66
2022/07/14 09:54:40;;;;;;;10.37;3.20;;;;;;;;;;5095339;28;20491;-65
2022/07/14 09:57:08;;;;;;;7.40;3.20;;;;;;;;;;5095773;28;20515;-65
2022/07/14 09:59:45;;;;;;;7.47;1.97;;;;;;;;;;5095159;28;20445;-65
2022/07/14 10:02:15;;;;;;;7.07;2.87;;;;;;;;;;5095798;28;20523;-65
2022/07/14 10:04:43;;;;;;;9.17;2.77;;;;;;;;;;5095524;28;20468;-66
2022/07/14 10:07:10;;;;;;;5.07;2.20;;;;;;;;;;5095153;28;20451;-65
2022/07/14 10:09:38;;;;;;;5.97;2.40;;;;;;;;;;5094967;28;20531;-66
2022/07/14 10:12:06;;;;;;;8.10;2.90;;;;;;;;;;5095384;28;20437;-65
2022/07/14 10:14:34;;;;;;;7.80;1.97;;;;;;;;;;5095275;28;20634;-65
2022/07/14 10:17:03;;;;;;;7.03;2.10;;;;;;;;;;5095271;28;20474;-65
2022/07/14 10:19:30;;;;;;;4.17;2.40;;;;;;;;;;5095056;28;20442;-65
2022/07/14 10:21:59;;;;;;;8.63;2.20;;;;;;;;;;5094826;28;20549;-65
2022/07/14 10:24:27;;;;;;;4.50;2.50;;;;;;;;;;5094492;28;20484;-66
2022/07/14 10:26:54;;;;;;;6.80;2.47;;;;;;;;;;5095066;28;20445;-65
2022/07/14 10:29:22;;;;;;;5.10;2.03;;;;;;;;;;5095125;28;20535;-66
2022/07/14 10:31:57;;;;;;;4.30;2.03;;;;;;;;;;5095165;28;20444;-65
2022/07/14 10:34:30;;;;;;;12.73;2.90;;;;;;;;;;5094593;28;20536;-65
2022/07/14 10:37:00;;;;;;;7.53;2.40;;;;;;;;;;5095175;28;20435;-65
2022/07/14 10:39:30;;;;;;;8.33;2.87;;;;;;;;;;5094855;28;20517;-65
2022/07/14 10:42:01;;;;;;;3.93;2.40;;;;;;;;;;5094134;28;20453;-65
2022/07/14 10:44:29;;;;;;;4.77;3.03;;;;;;;;;;5094764;28;20502;-65
2022/07/14 10:47:07;;;;;;;4.13;2.10;;;;;;;;;;5094728;28;20447;-65
2022/07/14 10:50:01;;;;;;;5.07;2.27;;;;;;;;;;5095115;28;20441;-66
2022/07/14 10:52:29;;;;;;;6.27;3.60;;;;;;;;;;5094658;28;20441;-65
2022/07/14 10:55:13;;;;;;;7.30;2.10;;;;;;;;;;5094611;28;20454;-65
2022/07/14 10:57:40;;;;;;;5.90;2.50;;;;;;;;;;5094537;28;20529;-65
2022/07/14 11:00:08;;;;;;;3.10;1.77;;;;;;;;;;5094066;28;20458;-65
2022/07/14 11:02:37;;;;;;;4.80;2.07;;;;;;;;;;5094423;28;20442;-65
2022/07/14 11:05:08;;;;;;;3.60;2.13;;;;;;;;;;5094500;28;20572;-65
2022/07/14 11:07:40;;;;;;;2.80;2.07;;;;;;;;;;5094835;28;20427;-65
2022/07/14 11:10:27;;;;;;;2.83;2.20;;;;;;;;;;5094172;28;21003;-65
2022/07/14 11:13:10;;;;;;;7.47;2.30;;;;;;;;;;5093814;28;20454;-65
2022/07/14 11:15:38;;;;;;;8.00;2.27;;;;;;;;;;5094066;28;20437;-65
2022/07/14 11:18:25;;;;;;;3.23;1.80;;;;;;;;;;5093824;28;20943;-65
2022/07/14 11:20:59;;;;;;;6.20;2.07;;;;;;;;;;5094041;28;20463;-65
2022/07/14 11:23:26;;;;;;;3.13;1.73;;;;;;;;;;5094889;28;20428;-65
2022/07/14 11:25:55;;;;;;;4.10;2.17;;;;;;;;;;5094205;28;20545;-65
2022/07/14 11:28:43;;;;;;;4.50;2.03;;;;;;;;;;5093729;28;20534;-65
2022/07/14 11:31:12;;;;;;;4.50;2.00;;;;;;;;;;5089435;28;20991;-65
2022/07/14 11:36:17;;;;;;;17.20;2.40;;;;;;;;;;5093915;28;20443;-65
2022/07/14 11:36:30;;;;;;;3.83;1.90;;;;;;;;;;5093846;28;20419;-65
2022/07/14 11:39:24;;;;;;;5.37;2.10;;;;;;;;;;5093830;28;20930;-65
2022/07/14 11:41:53;;;;;;;5.20;2.40;;;;;;;;;;5058448;28;20452;-65
2022/07/14 11:44:39;;;;;;;3.03;2.03;;;;;;;;;;5093996;28;20480;-65
2022/07/14 11:47:07;;;;;;;4.37;2.07;;;;;;;;;;5093769;28;20451;-65
2022/07/14 11:49:35;;;;;;;8.03;2.13;;;;;;;;;;5093969;28;20530;-66
2022/07/14 11:52:05;;;;;;;2.87;1.70;;;;;;;;;;5092903;28;20509;-65
2022/07/14 11:54:33;;;;;;;5.80;1.70;;;;;;;;;;5093342;28;20447;-66
2022/07/14 11:57:03;;;;;;;6.60;1.93;;;;;;;;;;5094142;28;20512;-66
2022/07/14 11:59:30;;;;;;;3.33;2.00;;;;;;;;;;5093660;28;20444;-66
2022/07/14 12:02:07;;;;;;;4.73;3.00;;;;;;;;;;5093266;28;20971;-65
2022/07/14 12:04:34;;;;;;;3.20;2.00;;;;;;;;;;5093970;28;20793;-66
2022/07/14 12:07:01;;;;;;;3.43;1.60;;;;;;;;;;5093491;28;20591;-65
2022/07/14 12:09:32;;;;;;;2.27;1.50;;;;;;;;;;5093720;28;20887;-65
2022/07/14 12:11:59;;;;;;;3.13;1.77;;;;;;;;;;5093427;28;20429;-65
2022/07/14 12:14:27;;;;;;;4.47;1.90;;;;;;;;;;5093361;28;20561;-65
2022/07/14 12:16:55;;;;;;;3.73;2.37;;;;;;;;;;5092854;28;20447;-65
2022/07/14 12:19:29;;;;;;;3.83;1.70;;;;;;;;;;5093131;28;20526;-65
2022/07/14 12:22:00;;;;;;;4.23;1.50;;;;;;;;;;5093311;28;20443;-66
2022/07/14 12:24:27;;;;;;;2.70;1.47;;;;;;;;;;5093368;28;20490;-66
2022/07/14 12:26:58;;;;;;;3.60;1.50;;;;;;;;;;5092970;28;20444;-65
2022/07/14 12:29:25;;;;;;;3.30;1.87;;;;;;;;;;5093653;28;20436;-65
2022/07/14 12:31:53;;;;;;;2.40;1.70;;;;;;;;;;5093246;28;21050;-65
2022/07/14 12:34:20;;;;;;;4.07;1.67;;;;;;;;;;5093267;28;20451;-65
2022/07/14 12:36:47;;;;;;;2.47;1.43;;;;;;;;;;5093073;28;20441;-65
2022/07/14 12:39:15;;;;;;;5.90;1.83;;;;;;;;;;5094126;28;20462;-65
2022/07/14 12:41:45;;;;;;;3.13;1.33;;;;;;;;;;5092831;28;20978;-65
2022/07/14 12:44:14;;;;;;;7.83;1.47;;;;;;;;;;5093487;28;20550;-65
2022/07/14 12:46:41;;;;;;;3.23;1.40;;;;;;;;;;5093285;28;20436;-65
2022/07/14 12:49:09;;;;;;;6.30;1.40;;;;;;;;;;5093162;28;20447;-65
2022/07/14 12:51:39;;;;;;;4.60;2.00;;;;;;;;;;5092793;28;20531;-65
2022/07/14 12:54:07;;;;;;;3.07;1.40;;;;;;;;;;5093675;28;20436;-65
2022/07/14 12:56:36;;;;;;;3.83;1.50;;;;;;;;;;5092956;28;20501;-66
2022/07/14 12:59:05;;;;;;;4.10;1.70;;;;;;;;;;5092982;28;21010;-64
2022/07/14 13:01:45;;;;;;;2.33;1.40;;;;;;;;;;5092588;28;20497;-67
2022/07/14 13:04:17;;;;;;;1.70;1.40;;;;;;;;;;5095501;28;20427;-65
2022/07/14 13:06:45;;;;;;;3.83;1.60;;;;;;;;;;5097037;28;21058;-65
2022/07/14 13:09:17;;;;;;;6.17;1.43;;;;;;;;;;5097160;28;20800;-65
2022/07/14 13:11:44;;;;;;;4.60;1.40;;;;;;;;;;5096441;28;20447;-65
2022/07/14 13:14:11;;;;;;;1.73;1.60;;;;;;;;;;5096492;28;20467;-65
2022/07/14 13:16:44;;;;;;;3.17;1.63;;;;;;;;;;5096394;28;20537;-65
2022/07/14 13:19:12;;;;;;;2.93;1.80;;;;;;;;;;5096856;28;20513;-65
2022/07/14 13:21:53;;;;;;;6.13;1.40;;;;;;;;;;5096254;28;20434;-65
2022/07/14 13:24:21;;;;;;;2.70;1.60;;;;;;;;;;5095619;28;20449;-66
2022/07/14 13:26:59;;;;;;;2.40;1.20;;;;;;;;;;5074584;28;20454;-65
2022/07/14 13:29:26;;;;;;;3.93;1.40;;;;;;;;;;5075258;28;20463;-65
2022/07/14 13:31:55;;;;;;;5.13;1.73;;;;;;;;;;5074806;28;20455;-65
2022/07/14 13:34:22;;;;;;;11.83;2.00;;;;;;;;;;5075580;28;20490;-65
2022/07/14 13:36:49;;;;;;;1.33;1.07;;;;;;;;;;5075137;28;20493;-65
2022/07/14 13:39:16;;;;;;;3.30;1.70;;;;;;;;;;5082501;28;20442;-65
2022/07/14 13:41:44;;;;;;;2.87;1.30;;;;;;;;;;5075177;28;20441;-65
2022/07/14 13:44:11;;;;;;;2.47;1.40;;;;;;;;;;5075072;28;20441;-65
2022/07/14 13:46:38;;;;;;;1.70;1.30;;;;;;;;;;5075052;28;20475;-65
2022/07/14 13:49:07;;;;;;;5.70;1.67;;;;;;;;;;5075526;28;20925;-65
2022/07/14 13:54:19;;;;;;;3.00;1.50;;;;;;;;;;5074884;28;20933;-65
2022/07/14 13:56:46;;;;;;;2.23;1.50;;;;;;;;;;5075227;28;20477;-65
2022/07/14 13:59:14;;;;;;;1.20;1.10;;;;;;;;;;5074747;28;20966;-65
2022/07/14 14:01:41;;;;;;;2.00;1.30;;;;;;;;;;5074721;28;20529;-65
2022/07/14 14:04:09;;;;;;;1.20;1.07;;;;;;;;;;5075161;28;20469;-65
2022/07/14 14:06:37;;;;;;;1.33;1.07;;;;;;;;;;5074519;28;21015;-65
2022/07/14 14:09:04;;;;;;;1.87;1.47;;;;;;;;;;5074682;28;20472;-65
2022/07/14 14:11:32;;;;;;;1.30;1.20;;;;;;;;;;5075129;28;20509;-65
2022/07/14 14:13:59;;;;;;;1.53;1.13;;;;;;;;;;5074602;28;20549;-65
2022/07/14 14:16:26;;;;;;;1.33;1.13;;;;;;;;;;5073613;28;20523;-66
2022/07/14 14:18:54;;;;;;;3.90;1.47;;;;;;;;;;5074799;28;20446;-65
2022/07/14 14:21:23;;;;;;;1.73;1.30;;;;;;;;;;5075015;28;20568;-64
2022/07/14 14:23:50;;;;;;;3.00;1.60;;;;;;;;;;5074222;28;20535;-65
2022/07/14 14:26:18;;;;;;;1.90;1.20;;;;;;;;;;5074494;28;20479;-65
2022/07/14 14:28:45;;;;;;;4.40;1.37;;;;;;;;;;5074545;28;20518;-65
2022/07/14 14:31:12;;;;;;;2.83;1.47;;;;;;;;;;5074641;28;20893;-65
2022/07/14 14:33:40;;;;;;;1.87;1.20;;;;;;;;;;5073558;28;20442;-65
2022/07/14 14:36:07;;;;;;;1.47;1.17;;;;;;;;;;5073787;28;20867;-65
2022/07/14 14:38:37;;;;;;;3.50;1.50;;;;;;;;;;5077694;28;20437;-65
2022/07/14 14:41:04;;;;;;;2.10;1.20;;;;;;;;;;5094825;28;20447;-65
2022/07/14 14:43:31;;;;;;;3.43;2.30;;;;;;;;;;5094350;28;20534;-65
2022/07/14 14:45:58;;;;;;;4.73;1.50;;;;;;;;;;5094057;28;20482;-65
2022/07/14 14:48:26;;;;;;;3.90;1.60;;;;;;;;;;5094283;28;20539;-65
2022/07/14 14:50:53;;;;;;;2.77;1.30;;;;;;;;;;5094937;28;20472;-65
2022/07/14 14:53:20;;;;;;;3.20;1.37;;;;;;;;;;5094231;28;20529;-65
2022/07/14 14:55:49;;;;;;;1.50;1.40;;;;;;;;;;5094365;28;20450;-64
2022/07/14 14:58:16;;;;;;;2.20;1.30;;;;;;;;;;5094252;28;20446;-65
2022/07/14 15:00:43;;;;;;;2.33;1.77;;;;;;;;;;5094335;28;20555;-65
2022/07/14 15:03:11;;;;;;;2.30;1.70;;;;;;;;;;5093940;28;20445;-65